sensor_id;sensor_type;location;lat;lon;timestamp;pressure;altitude;pressure_sealevel;temperature;humidity
23733;BME280;12047;53.450;-2.286;2022-11-12T00:01:55;102200.69;;;19.76;100.00
23733;BME280;12047;53.450;-2.286;2022-11-12T00:06:55;102203.88;;;19.20;100.00
23733;BME280;12047;53.450;-2.286;2022-11-12T00:11:56;102204.72;;;19.20;100.00
23733;BME280;12047;53.450;-2.286;2022-11-12T00:16:56;102212.25;;;19.43;100.00
23733;BME280;12047;53.450;-2.286;2022-11-12T00:21:57;102221.09;;;19.35;100.00
23733;BME280;12047;53.450;-2.286;2022-11-12T00:26:57;102223.25;;;19.06;100.00
23733;BME280;12047;53.450;-2.286;2022-11-12T00:31:58;102227.47;;;19.34;100.00
23733;BME280;12047;53.450;-2.286;2022-11-12T00:36:59;102235.84;;;19.31;100.00
23733;BME280;12047;53.450;-2.286;2022-11-12T00:42:00;102233.81;;;19.25;100.00
23733;BME280;12047;53.450;-2.286;2022-11-12T00:47:01;102237.91;;;19.55;100.00
23733;BME280;12047;53.450;-2.286;2022-11-12T00:52:03;102241.72;;;20.36;100.00
23733;BME280;12047;53.450;-2.286;2022-11-12T00:57:03;102246.53;;;19.66;100.00
23733;BME280;12047;53.450;-2.286;2022-11-12T01:02:04;102241.34;;;18.60;100.00
23733;BME280;12047;53.450;-2.286;2022-11-12T01:07:04;102237.09;;;18.93;100.00
23733;BME280;12047;53.450;-2.286;2022-11-12T01:12:05;102244.63;;;18.89;100.00
23733;BME280;12047;53.450;-2.286;2022-11-12T01:17:05;102235.75;;;19.15;100.00
23733;BME280;12047;53.450;-2.286;2022-11-12T01:22:06;102241.03;;;18.98;100.00
23733;BME280;12047;53.450;-2.286;2022-11-12T01:27:06;102248.00;;;18.56;100.00
23733;BME280;12047;53.450;-2.286;2022-11-12T01:32:07;102235.59;;;18.73;100.00
23733;BME280;12047;53.450;-2.286;2022-11-12T01:37:08;102241.41;;;18.68;100.00
23733;BME280;12047;53.450;-2.286;2022-11-12T01:42:08;102241.59;;;18.39;100.00
23733;BME280;12047;53.450;-2.286;2022-11-12T01:52:23;102241.44;;;18.58;100.00
23733;BME280;12047;53.450;-2.286;2022-11-12T01:57:30;102237.75;;;18.69;100.00
23733;BME280;12047;53.450;-2.286;2022-11-12T02:02:34;102242.91;;;19.06;100.00
23733;BME280;12047;53.450;-2.286;2022-11-12T02:07:37;102244.53;;;18.81;100.00
23733;BME280;12047;53.450;-2.286;2022-11-12T02:12:38;102235.66;;;18.81;100.00
23733;BME280;12047;53.450;-2.286;2022-11-12T02:17:58;102230.81;;;18.31;100.00
23733;BME280;12047;53.450;-2.286;2022-11-12T02:22:58;102238.88;;;18.66;100.00
23733;BME280;12047;53.450;-2.286;2022-11-12T02:27:59;102233.44;;;18.76;100.00
23733;BME280;12047;53.450;-2.286;2022-11-12T02:33:01;102236.50;;;18.00;100.00
23733;BME280;12047;53.450;-2.286;2022-11-12T02:38:04;102237.19;;;19.01;100.00
23733;BME280;12047;53.450;-2.286;2022-11-12T02:43:04;102240.66;;;17.39;100.00
23733;BME280;12047;53.450;-2.286;2022-11-12T02:48:05;102241.56;;;18.66;100.00
23733;BME280;12047;53.450;-2.286;2022-11-12T02:53:05;102246.31;;;18.90;100.00
23733;BME280;12047;53.450;-2.286;2022-11-12T02:58:06;102248.66;;;18.58;100.00
23733;BME280;12047;53.450;-2.286;2022-11-12T03:03:06;102239.50;;;18.60;100.00
23733;BME280;12047;53.450;-2.286;2022-11-12T03:08:07;102237.25;;;18.56;100.00
23733;BME280;12047;53.450;-2.286;2022-11-12T03:13:08;102230.72;;;18.58;100.00
23733;BME280;12047;53.450;-2.286;2022-11-12T03:18:09;102234.22;;;18.68;100.00
23733;BME280;12047;53.450;-2.286;2022-11-12T03:23:10;102231.03;;;18.38;100.00
23733;BME280;12047;53.450;-2.286;2022-11-12T03:28:13;102226.91;;;18.96;100.00
23733;BME280;12047;53.450;-2.286;2022-11-12T03:33:14;102230.16;;;18.19;100.00
23733;BME280;12047;53.450;-2.286;2022-11-12T03:38:16;102219.06;;;19.29;100.00
23733;BME280;12047;53.450;-2.286;2022-11-12T03:43:16;102215.00;;;18.99;100.00
23733;BME280;12047;53.450;-2.286;2022-11-12T03:48:17;102211.94;;;18.58;100.00
23733;BME280;12047;53.450;-2.286;2022-11-12T03:53:17;102211.88;;;18.50;100.00
23733;BME280;12047;53.450;-2.286;2022-11-12T03:58:18;102219.00;;;17.96;100.00
23733;BME280;12047;53.450;-2.286;2022-11-12T04:03:19;102209.41;;;17.66;100.00
23733;BME280;12047;53.450;-2.286;2022-11-12T04:08:21;102211.00;;;19.03;100.00
23733;BME280;12047;53.450;-2.286;2022-11-12T04:13:38;102203.94;;;18.84;100.00
23733;BME280;12047;53.450;-2.286;2022-11-12T04:18:41;102223.16;;;18.54;100.00
23733;BME280;12047;53.450;-2.286;2022-11-12T04:24:01;102215.69;;;19.01;100.00
23733;BME280;12047;53.450;-2.286;2022-11-12T04:29:01;102204.72;;;18.94;100.00
23733;BME280;12047;53.450;-2.286;2022-11-12T04:34:20;102196.72;;;17.96;100.00
23733;BME280;12047;53.450;-2.286;2022-11-12T04:39:30;102196.59;;;18.51;100.00
23733;BME280;12047;53.450;-2.286;2022-11-12T04:44:30;102196.81;;;17.77;100.00
23733;BME280;12047;53.450;-2.286;2022-11-12T04:49:49;102203.50;;;18.35;100.00
23733;BME280;12047;53.450;-2.286;2022-11-12T04:54:51;102210.00;;;18.33;100.00
23733;BME280;12047;53.450;-2.286;2022-11-12T04:59:51;102210.09;;;18.23;100.00
23733;BME280;12047;53.450;-2.286;2022-11-12T05:04:52;102211.91;;;18.05;100.00
23733;BME280;12047;53.450;-2.286;2022-11-12T05:09:52;102212.97;;;17.85;100.00
23733;BME280;12047;53.450;-2.286;2022-11-12T05:14:53;102210.50;;;18.01;100.00
23733;BME280;12047;53.450;-2.286;2022-11-12T05:19:53;102208.22;;;17.42;100.00
23733;BME280;12047;53.450;-2.286;2022-11-12T05:24:54;102208.63;;;17.84;100.00
23733;BME280;12047;53.450;-2.286;2022-11-12T05:29:54;102212.38;;;18.18;100.00
23733;BME280;12047;53.450;-2.286;2022-11-12T05:34:55;102199.28;;;17.88;100.00
23733;BME280;12047;53.450;-2.286;2022-11-12T05:39:55;102208.53;;;17.76;100.00
23733;BME280;12047;53.450;-2.286;2022-11-12T05:44:56;102213.78;;;17.95;100.00
23733;BME280;12047;53.450;-2.286;2022-11-12T05:49:56;102210.66;;;17.72;100.00
23733;BME280;12047;53.450;-2.286;2022-11-12T05:54:57;102214.00;;;18.29;100.00
23733;BME280;12047;53.450;-2.286;2022-11-12T05:59:57;102213.53;;;18.33;100.00
23733;BME280;12047;53.450;-2.286;2022-11-12T06:04:58;102218.44;;;18.38;100.00
23733;BME280;12047;53.450;-2.286;2022-11-12T06:09:58;102207.22;;;18.70;100.00
23733;BME280;12047;53.450;-2.286;2022-11-12T06:14:59;102201.44;;;18.65;100.00
23733;BME280;12047;53.450;-2.286;2022-11-12T06:19:59;102199.91;;;18.62;100.00
23733;BME280;12047;53.450;-2.286;2022-11-12T06:25:00;102206.22;;;18.71;100.00
23733;BME280;12047;53.450;-2.286;2022-11-12T06:30:00;102214.06;;;18.19;100.00
23733;BME280;12047;53.450;-2.286;2022-11-12T06:35:01;102213.31;;;18.45;100.00
23733;BME280;12047;53.450;-2.286;2022-11-12T06:40:02;102210.84;;;18.33;100.00
23733;BME280;12047;53.450;-2.286;2022-11-12T06:45:03;102220.44;;;17.91;100.00
23733;BME280;12047;53.450;-2.286;2022-11-12T06:50:04;102226.19;;;17.68;100.00
23733;BME280;12047;53.450;-2.286;2022-11-12T06:55:06;102226.19;;;18.23;100.00
23733;BME280;12047;53.450;-2.286;2022-11-12T07:00:10;102228.28;;;18.47;100.00
23733;BME280;12047;53.450;-2.286;2022-11-12T07:05:11;102221.31;;;17.82;100.00
23733;BME280;12047;53.450;-2.286;2022-11-12T07:10:12;102223.81;;;18.20;100.00
23733;BME280;12047;53.450;-2.286;2022-11-12T07:15:12;102221.72;;;18.14;100.00
23733;BME280;12047;53.450;-2.286;2022-11-12T07:20:13;102225.75;;;17.63;100.00
23733;BME280;12047;53.450;-2.286;2022-11-12T07:25:14;102221.47;;;17.33;100.00
23733;BME280;12047;53.450;-2.286;2022-11-12T07:30:15;102222.81;;;17.66;100.00
23733;BME280;12047;53.450;-2.286;2022-11-12T07:35:15;102226.09;;;17.88;100.00
23733;BME280;12047;53.450;-2.286;2022-11-12T07:40:16;102218.78;;;18.08;100.00
23733;BME280;12047;53.450;-2.286;2022-11-12T07:45:16;102226.16;;;17.78;100.00
23733;BME280;12047;53.450;-2.286;2022-11-12T07:50:17;102230.00;;;18.03;100.00
23733;BME280;12047;53.450;-2.286;2022-11-12T07:55:18;102215.34;;;18.15;100.00
23733;BME280;12047;53.450;-2.286;2022-11-12T08:00:18;102223.53;;;17.96;100.00
23733;BME280;12047;53.450;-2.286;2022-11-12T08:05:19;102217.88;;;17.99;100.00
23733;BME280;12047;53.450;-2.286;2022-11-12T08:10:19;102217.72;;;18.00;100.00
23733;BME280;12047;53.450;-2.286;2022-11-12T08:15:20;102213.75;;;18.22;100.00
23733;BME280;12047;53.450;-2.286;2022-11-12T08:20:20;102209.59;;;17.83;100.00
23733;BME280;12047;53.450;-2.286;2022-11-12T08:25:22;102218.09;;;18.51;100.00
23733;BME280;12047;53.450;-2.286;2022-11-12T08:30:24;102205.19;;;18.54;100.00
23733;BME280;12047;53.450;-2.286;2022-11-12T08:35:26;102213.28;;;18.09;100.00
23733;BME280;12047;53.450;-2.286;2022-11-12T08:40:28;102215.22;;;17.89;100.00
23733;BME280;12047;53.450;-2.286;2022-11-12T08:45:31;102225.22;;;17.70;100.00
23733;BME280;12047;53.450;-2.286;2022-11-12T08:50:33;102225.59;;;17.28;100.00
23733;BME280;12047;53.450;-2.286;2022-11-12T08:55:35;102224.53;;;16.92;100.00
23733;BME280;12047;53.450;-2.286;2022-11-12T09:00:42;102243.91;;;18.07;100.00
23733;BME280;12047;53.450;-2.286;2022-11-12T09:05:43;102246.72;;;18.32;100.00
23733;BME280;12047;53.450;-2.286;2022-11-12T09:10:43;102243.16;;;18.42;100.00
23733;BME280;12047;53.450;-2.286;2022-11-12T09:15:45;102254.97;;;18.04;100.00
23733;BME280;12047;53.450;-2.286;2022-11-12T09:20:46;102246.81;;;17.95;100.00
23733;BME280;12047;53.450;-2.286;2022-11-12T09:25:47;102254.81;;;18.50;100.00
23733;BME280;12047;53.450;-2.286;2022-11-12T09:30:49;102252.31;;;18.21;100.00
23733;BME280;12047;53.450;-2.286;2022-11-12T09:35:50;102260.72;;;18.09;100.00
23733;BME280;12047;53.450;-2.286;2022-11-12T09:45:53;102267.88;;;18.18;100.00
23733;BME280;12047;53.450;-2.286;2022-11-12T09:51:05;102271.06;;;18.49;100.00
23733;BME280;12047;53.450;-2.286;2022-11-12T09:56:12;102276.72;;;18.28;100.00
23733;BME280;12047;53.450;-2.286;2022-11-12T10:01:23;102256.13;;;18.99;100.00
23733;BME280;12047;53.450;-2.286;2022-11-12T10:06:39;102254.88;;;19.12;100.00
23733;BME280;12047;53.450;-2.286;2022-11-12T10:11:59;102258.81;;;18.82;100.00
23733;BME280;12047;53.450;-2.286;2022-11-12T10:17:41;102255.06;;;18.92;100.00
23733;BME280;12047;53.450;-2.286;2022-11-12T10:28:37;102265.91;;;19.26;100.00
23733;BME280;12047;53.450;-2.286;2022-11-12T10:33:39;102255.13;;;19.70;100.00
23733;BME280;12047;53.450;-2.286;2022-11-12T10:38:42;102249.66;;;18.57;100.00
23733;BME280;12047;53.450;-2.286;2022-11-12T10:43:58;102268.31;;;18.58;100.00
23733;BME280;12047;53.450;-2.286;2022-11-12T10:49:23;102257.63;;;19.20;100.00
23733;BME280;12047;53.450;-2.286;2022-11-12T10:54:35;102237.03;;;19.28;100.00
23733;BME280;12047;53.450;-2.286;2022-11-12T10:59:40;102249.66;;;19.10;100.00
23733;BME280;12047;53.450;-2.286;2022-11-12T11:04:41;102227.75;;;19.83;100.00
23733;BME280;12047;53.450;-2.286;2022-11-12T11:09:56;102224.16;;;20.08;100.00
23733;BME280;12047;53.450;-2.286;2022-11-12T11:15:06;102237.81;;;19.21;100.00
23733;BME280;12047;53.450;-2.286;2022-11-12T11:20:27;102232.69;;;19.10;100.00
23733;BME280;12047;53.450;-2.286;2022-11-12T11:25:31;102228.22;;;19.70;100.00
23733;BME280;12047;53.450;-2.286;2022-11-12T11:30:39;102215.03;;;19.51;100.00
23733;BME280;12047;53.450;-2.286;2022-11-12T11:46:17;102171.34;;;19.31;100.00
23733;BME280;12047;53.450;-2.286;2022-11-12T11:56:48;102190.88;;;19.67;100.00
23733;BME280;12047;53.450;-2.286;2022-11-12T12:02:02;102176.69;;;19.23;100.00
23733;BME280;12047;53.450;-2.286;2022-11-12T12:23:33;102153.22;;;20.17;100.00
23733;BME280;12047;53.450;-2.286;2022-11-12T12:28:58;102156.31;;;19.46;100.00
23733;BME280;12047;53.450;-2.286;2022-11-12T12:39:41;102142.00;;;19.72;100.00
23733;BME280;12047;53.450;-2.286;2022-11-12T12:44:44;102151.59;;;19.82;100.00
23733;BME280;12047;53.450;-2.286;2022-11-12T12:50:10;102142.41;;;18.91;100.00
23733;BME280;12047;53.450;-2.286;2022-11-12T13:00:36;102127.75;;;19.45;100.00
23733;BME280;12047;53.450;-2.286;2022-11-12T13:05:38;102137.66;;;19.79;100.00
23733;BME280;12047;53.450;-2.286;2022-11-12T13:15:47;102122.53;;;19.78;100.00
23733;BME280;12047;53.450;-2.286;2022-11-12T13:21:11;102125.28;;;20.18;100.00
23733;BME280;12047;53.450;-2.286;2022-11-12T13:26:44;102131.41;;;20.45;100.00
23733;BME280;12047;53.450;-2.286;2022-11-12T13:31:45;102129.00;;;20.58;100.00
23733;BME280;12047;53.450;-2.286;2022-11-12T13:36:55;102120.47;;;20.46;100.00
23733;BME280;12047;53.450;-2.286;2022-11-12T13:41:57;102116.25;;;20.52;100.00
23733;BME280;12047;53.450;-2.286;2022-11-12T13:47:20;102105.59;;;20.83;100.00
23733;BME280;12047;53.450;-2.286;2022-11-12T13:52:24;102108.19;;;20.52;100.00
23733;BME280;12047;53.450;-2.286;2022-11-12T13:57:29;102105.47;;;20.52;100.00
23733;BME280;12047;53.450;-2.286;2022-11-12T14:02:31;102101.59;;;20.70;100.00
23733;BME280;12047;53.450;-2.286;2022-11-12T14:24:11;102095.47;;;20.85;100.00
23733;BME280;12047;53.450;-2.286;2022-11-12T14:29:17;102076.53;;;20.54;100.00
23733;BME280;12047;53.450;-2.286;2022-11-12T14:34:26;102071.13;;;20.13;100.00
23733;BME280;12047;53.450;-2.286;2022-11-12T14:39:27;102070.63;;;20.18;100.00
23733;BME280;12047;53.450;-2.286;2022-11-12T14:44:34;102077.00;;;20.17;100.00
23733;BME280;12047;53.450;-2.286;2022-11-12T14:49:38;102072.16;;;20.45;100.00
23733;BME280;12047;53.450;-2.286;2022-11-12T14:54:48;102067.34;;;20.87;100.00
23733;BME280;12047;53.450;-2.286;2022-11-12T14:59:50;102055.97;;;20.69;100.00
23733;BME280;12047;53.450;-2.286;2022-11-12T15:04:53;102059.50;;;19.88;100.00
23733;BME280;12047;53.450;-2.286;2022-11-12T15:09:58;102061.53;;;20.19;100.00
23733;BME280;12047;53.450;-2.286;2022-11-12T15:15:19;102061.22;;;20.46;100.00
23733;BME280;12047;53.450;-2.286;2022-11-12T15:20:24;102051.94;;;20.16;100.00
23733;BME280;12047;53.450;-2.286;2022-11-12T15:25:28;102037.59;;;19.59;100.00
23733;BME280;12047;53.450;-2.286;2022-11-12T15:30:29;102032.25;;;20.56;100.00
23733;BME280;12047;53.450;-2.286;2022-11-12T15:35:32;102035.47;;;20.44;100.00
23733;BME280;12047;53.450;-2.286;2022-11-12T15:40:41;102023.69;;;20.53;100.00
23733;BME280;12047;53.450;-2.286;2022-11-12T15:45:46;102030.91;;;20.36;100.00
23733;BME280;12047;53.450;-2.286;2022-11-12T15:50:48;102034.28;;;21.49;100.00
23733;BME280;12047;53.450;-2.286;2022-11-12T15:55:50;102021.59;;;21.26;100.00
23733;BME280;12047;53.450;-2.286;2022-11-12T16:00:51;102026.00;;;20.31;100.00
23733;BME280;12047;53.450;-2.286;2022-11-12T16:05:51;102025.66;;;20.75;100.00
23733;BME280;12047;53.450;-2.286;2022-11-12T16:10:52;102028.97;;;20.85;100.00
23733;BME280;12047;53.450;-2.286;2022-11-12T16:15:53;102012.78;;;20.93;100.00
23733;BME280;12047;53.450;-2.286;2022-11-12T16:20:54;102017.47;;;20.12;100.00
23733;BME280;12047;53.450;-2.286;2022-11-12T16:25:55;102006.88;;;19.78;100.00
23733;BME280;12047;53.450;-2.286;2022-11-12T16:30:56;101991.63;;;19.28;100.00
23733;BME280;12047;53.450;-2.286;2022-11-12T16:35:56;101999.47;;;20.92;100.00
23733;BME280;12047;53.450;-2.286;2022-11-12T16:40:57;101995.59;;;20.23;100.00
23733;BME280;12047;53.450;-2.286;2022-11-12T16:45:57;101998.28;;;20.23;100.00
23733;BME280;12047;53.450;-2.286;2022-11-12T16:50:58;102010.41;;;20.98;100.00
23733;BME280;12047;53.450;-2.286;2022-11-12T16:55:59;102016.22;;;20.71;100.00
23733;BME280;12047;53.450;-2.286;2022-11-12T17:01:00;102020.75;;;20.79;100.00
23733;BME280;12047;53.450;-2.286;2022-11-12T17:06:00;102017.47;;;19.79;100.00
23733;BME280;12047;53.450;-2.286;2022-11-12T17:11:06;102018.16;;;19.31;100.00
23733;BME280;12047;53.450;-2.286;2022-11-12T17:16:08;102003.66;;;18.48;100.00
23733;BME280;12047;53.450;-2.286;2022-11-12T17:21:13;101987.25;;;18.07;100.00
23733;BME280;12047;53.450;-2.286;2022-11-12T17:26:17;101989.66;;;18.62;100.00
23733;BME280;12047;53.450;-2.286;2022-11-12T17:31:20;101993.75;;;18.48;100.00
23733;BME280;12047;53.450;-2.286;2022-11-12T17:36:23;101985.22;;;17.83;100.00
23733;BME280;12047;53.450;-2.286;2022-11-12T17:41:26;101976.19;;;17.84;100.00
23733;BME280;12047;53.450;-2.286;2022-11-12T17:46:30;101971.66;;;17.85;100.00
23733;BME280;12047;53.450;-2.286;2022-11-12T17:51:31;101972.28;;;18.48;100.00
23733;BME280;12047;53.450;-2.286;2022-11-12T17:56:33;101976.69;;;18.83;100.00
23733;BME280;12047;53.450;-2.286;2022-11-12T18:01:33;101987.81;;;18.96;100.00
23733;BME280;12047;53.450;-2.286;2022-11-12T18:06:34;101984.28;;;18.62;100.00
23733;BME280;12047;53.450;-2.286;2022-11-12T18:11:47;101973.44;;;18.46;100.00
23733;BME280;12047;53.450;-2.286;2022-11-12T18:16:48;101964.41;;;18.21;100.00
23733;BME280;12047;53.450;-2.286;2022-11-12T18:21:48;101951.00;;;17.77;100.00
23733;BME280;12047;53.450;-2.286;2022-11-12T18:26:49;101959.94;;;18.29;100.00
23733;BME280;12047;53.450;-2.286;2022-11-12T18:31:49;101961.13;;;18.61;100.00
23733;BME280;12047;53.450;-2.286;2022-11-12T18:36:50;101945.00;;;17.83;100.00
23733;BME280;12047;53.450;-2.286;2022-11-12T18:41:51;101937.25;;;17.98;100.00
23733;BME280;12047;53.450;-2.286;2022-11-12T18:46:54;101927.09;;;18.35;100.00
23733;BME280;12047;53.450;-2.286;2022-11-12T18:51:54;101939.13;;;18.91;100.00
23733;BME280;12047;53.450;-2.286;2022-11-12T18:56:55;101940.44;;;18.53;100.00
23733;BME280;12047;53.450;-2.286;2022-11-12T19:01:56;101934.19;;;18.45;100.00
23733;BME280;12047;53.450;-2.286;2022-11-12T19:06:57;101928.47;;;18.14;100.00
23733;BME280;12047;53.450;-2.286;2022-11-12T19:11:57;101919.44;;;18.49;100.00
23733;BME280;12047;53.450;-2.286;2022-11-12T19:16:58;101917.53;;;18.67;100.00
23733;BME280;12047;53.450;-2.286;2022-11-12T19:21:59;101917.28;;;18.86;100.00
23733;BME280;12047;53.450;-2.286;2022-11-12T19:26:59;101926.78;;;19.23;100.00
23733;BME280;12047;53.450;-2.286;2022-11-12T19:32:00;101923.66;;;19.52;100.00
23733;BME280;12047;53.450;-2.286;2022-11-12T19:37:00;101907.66;;;19.42;100.00
23733;BME280;12047;53.450;-2.286;2022-11-12T19:42:01;101914.69;;;19.35;100.00
23733;BME280;12047;53.450;-2.286;2022-11-12T19:47:01;101907.19;;;19.79;100.00
23733;BME280;12047;53.450;-2.286;2022-11-12T19:52:02;101916.94;;;19.96;100.00
23733;BME280;12047;53.450;-2.286;2022-11-12T19:57:02;101928.84;;;19.94;100.00
23733;BME280;12047;53.450;-2.286;2022-11-12T20:02:03;101926.44;;;20.40;100.00
23733;BME280;12047;53.450;-2.286;2022-11-12T20:07:03;101918.84;;;20.35;100.00
23733;BME280;12047;53.450;-2.286;2022-11-12T20:12:05;101919.44;;;19.98;100.00
23733;BME280;12047;53.450;-2.286;2022-11-12T20:17:05;101914.75;;;19.92;100.00
23733;BME280;12047;53.450;-2.286;2022-11-12T20:22:06;101906.69;;;19.67;100.00
23733;BME280;12047;53.450;-2.286;2022-11-12T20:27:06;101910.66;;;20.28;100.00
23733;BME280;12047;53.450;-2.286;2022-11-12T20:32:07;101911.53;;;19.56;100.00
23733;BME280;12047;53.450;-2.286;2022-11-12T20:37:08;101908.88;;;19.72;100.00
23733;BME280;12047;53.450;-2.286;2022-11-12T20:42:09;101920.06;;;20.24;100.00
23733;BME280;12047;53.450;-2.286;2022-11-12T20:47:10;101924.69;;;19.75;100.00
23733;BME280;12047;53.450;-2.286;2022-11-12T20:52:11;101922.78;;;20.16;100.00
23733;BME280;12047;53.450;-2.286;2022-11-12T20:57:12;101920.47;;;19.64;100.00
23733;BME280;12047;53.450;-2.286;2022-11-12T21:02:12;101917.91;;;19.38;100.00
23733;BME280;12047;53.450;-2.286;2022-11-12T21:07:13;101915.22;;;19.38;100.00
23733;BME280;12047;53.450;-2.286;2022-11-12T21:12:14;101928.38;;;19.66;100.00
23733;BME280;12047;53.450;-2.286;2022-11-12T21:17:15;101939.47;;;20.75;100.00
23733;BME280;12047;53.450;-2.286;2022-11-12T21:22:18;101941.06;;;20.53;100.00
23733;BME280;12047;53.450;-2.286;2022-11-12T21:27:19;101947.03;;;19.92;100.00
23733;BME280;12047;53.450;-2.286;2022-11-12T21:32:19;101950.03;;;20.13;100.00
23733;BME280;12047;53.450;-2.286;2022-11-12T21:37:20;101962.78;;;20.27;100.00
23733;BME280;12047;53.450;-2.286;2022-11-12T21:42:21;101968.38;;;20.01;100.00
23733;BME280;12047;53.450;-2.286;2022-11-12T21:47:22;101972.84;;;20.33;100.00
23733;BME280;12047;53.450;-2.286;2022-11-12T21:52:22;101975.06;;;20.22;100.00
23733;BME280;12047;53.450;-2.286;2022-11-12T21:57:23;101977.59;;;20.07;100.00
23733;BME280;12047;53.450;-2.286;2022-11-12T22:02:23;101971.03;;;20.18;100.00
23733;BME280;12047;53.450;-2.286;2022-11-12T22:07:24;101970.16;;;20.97;100.00
23733;BME280;12047;53.450;-2.286;2022-11-12T22:12:24;101967.34;;;20.11;100.00
23733;BME280;12047;53.450;-2.286;2022-11-12T22:17:25;101959.25;;;20.27;100.00
23733;BME280;12047;53.450;-2.286;2022-11-12T22:22:25;101958.63;;;19.84;100.00
23733;BME280;12047;53.450;-2.286;2022-11-12T22:27:27;101953.75;;;19.88;100.00
23733;BME280;12047;53.450;-2.286;2022-11-12T22:32:30;101947.53;;;20.03;100.00
23733;BME280;12047;53.450;-2.286;2022-11-12T22:37:31;101951.88;;;19.80;100.00
23733;BME280;12047;53.450;-2.286;2022-11-12T22:42:32;101949.53;;;19.53;100.00
23733;BME280;12047;53.450;-2.286;2022-11-12T22:47:33;101951.00;;;19.47;100.00
23733;BME280;12047;53.450;-2.286;2022-11-12T22:52:33;101945.66;;;19.63;100.00
23733;BME280;12047;53.450;-2.286;2022-11-12T22:57:34;101941.31;;;19.79;100.00
23733;BME280;12047;53.450;-2.286;2022-11-12T23:02:34;101950.88;;;19.65;100.00
23733;BME280;12047;53.450;-2.286;2022-11-12T23:07:35;101938.94;;;20.00;100.00
23733;BME280;12047;53.450;-2.286;2022-11-12T23:12:35;101932.34;;;19.46;100.00
23733;BME280;12047;53.450;-2.286;2022-11-12T23:17:36;101936.25;;;19.67;100.00
23733;BME280;12047;53.450;-2.286;2022-11-12T23:22:36;101923.84;;;19.50;100.00
23733;BME280;12047;53.450;-2.286;2022-11-12T23:27:37;101914.09;;;19.65;100.00
23733;BME280;12047;53.450;-2.286;2022-11-12T23:32:37;101914.19;;;19.23;100.00
23733;BME280;12047;53.450;-2.286;2022-11-12T23:37:38;101908.38;;;19.68;100.00
23733;BME280;12047;53.450;-2.286;2022-11-12T23:42:39;101912.75;;;19.69;100.00
23733;BME280;12047;53.450;-2.286;2022-11-12T23:47:39;101909.41;;;18.59;100.00
23733;BME280;12047;53.450;-2.286;2022-11-12T23:52:40;101905.00;;;19.50;100.00
23733;BME280;12047;53.450;-2.286;2022-11-12T23:57:41;101895.56;;;19.38;100.00
